sensor_id;sensor_type;location;lat;lon;timestamp;temperature;humidity
11836;DHT22;5977;51.972;7.640;2022-09-16T00:01:00;20.00;75.70
11836;DHT22;5977;51.972;7.640;2022-09-16T00:03:27;19.90;75.70
11836;DHT22;5977;51.972;7.640;2022-09-16T00:05:55;19.90;75.80
11836;DHT22;5977;51.972;7.640;2022-09-16T00:08:23;19.90;75.50
11836;DHT22;5977;51.972;7.640;2022-09-16T00:10:51;20.00;76.10
11836;DHT22;5977;51.972;7.640;2022-09-16T00:13:19;19.90;75.30
11836;DHT22;5977;51.972;7.640;2022-09-16T00:15:49;20.00;75.90
11836;DHT22;5977;51.972;7.640;2022-09-16T00:18:17;20.20;75.00
11836;DHT22;5977;51.972;7.640;2022-09-16T00:20:46;20.10;74.70
11836;DHT22;5977;51.972;7.640;2022-09-16T00:23:15;20.00;74.90
11836;DHT22;5977;51.972;7.640;2022-09-16T00:25:43;20.10;75.70
11836;DHT22;5977;51.972;7.640;2022-09-16T00:28:10;20.00;75.30
11836;DHT22;5977;51.972;7.640;2022-09-16T00:30:38;20.00;75.00
11836;DHT22;5977;51.972;7.640;2022-09-16T00:33:07;20.00;75.50
11836;DHT22;5977;51.972;7.640;2022-09-16T00:35:36;20.10;74.90
11836;DHT22;5977;51.972;7.640;2022-09-16T00:38:04;20.00;75.00
11836;DHT22;5977;51.972;7.640;2022-09-16T00:40:32;20.00;74.90
11836;DHT22;5977;51.972;7.640;2022-09-16T00:43:00;20.10;75.30
11836;DHT22;5977;51.972;7.640;2022-09-16T00:45:27;19.80;74.90
11836;DHT22;5977;51.972;7.640;2022-09-16T00:47:59;20.00;75.50
11836;DHT22;5977;51.972;7.640;2022-09-16T00:50:34;20.00;75.00
11836;DHT22;5977;51.972;7.640;2022-09-16T00:53:04;20.00;75.30
11836;DHT22;5977;51.972;7.640;2022-09-16T00:55:36;19.90;75.20
11836;DHT22;5977;51.972;7.640;2022-09-16T00:58:09;19.90;75.70
11836;DHT22;5977;51.972;7.640;2022-09-16T01:00:39;19.90;75.20
11836;DHT22;5977;51.972;7.640;2022-09-16T01:03:07;19.90;75.70
11836;DHT22;5977;51.972;7.640;2022-09-16T01:05:37;19.80;76.00
11836;DHT22;5977;51.972;7.640;2022-09-16T01:08:05;19.90;75.90
11836;DHT22;5977;51.972;7.640;2022-09-16T01:10:33;19.90;75.80
11836;DHT22;5977;51.972;7.640;2022-09-16T01:13:03;19.80;76.00
11836;DHT22;5977;51.972;7.640;2022-09-16T01:15:38;19.90;75.70
11836;DHT22;5977;51.972;7.640;2022-09-16T01:18:15;19.90;75.70
11836;DHT22;5977;51.972;7.640;2022-09-16T01:30:13;19.80;76.40
11836;DHT22;5977;51.972;7.640;2022-09-16T01:33:03;19.70;76.60
11836;DHT22;5977;51.972;7.640;2022-09-16T01:38:49;19.70;76.00
11836;DHT22;5977;51.972;7.640;2022-09-16T01:41:24;19.60;77.30
11836;DHT22;5977;51.972;7.640;2022-09-16T01:43:59;19.70;77.70
11836;DHT22;5977;51.972;7.640;2022-09-16T01:46:35;19.60;76.70
11836;DHT22;5977;51.972;7.640;2022-09-16T01:49:15;19.60;77.20
11836;DHT22;5977;51.972;7.640;2022-09-16T01:51:49;19.50;77.70
11836;DHT22;5977;51.972;7.640;2022-09-16T01:54:25;19.50;77.50
11836;DHT22;5977;51.972;7.640;2022-09-16T01:56:59;19.70;78.00
11836;DHT22;5977;51.972;7.640;2022-09-16T01:59:34;19.70;77.60
11836;DHT22;5977;51.972;7.640;2022-09-16T02:02:07;19.70;77.40
11836;DHT22;5977;51.972;7.640;2022-09-16T02:04:41;19.60;77.80
11836;DHT22;5977;51.972;7.640;2022-09-16T02:07:12;19.60;77.30
11836;DHT22;5977;51.972;7.640;2022-09-16T02:09:45;19.50;77.60
11836;DHT22;5977;51.972;7.640;2022-09-16T02:12:19;19.60;78.60
11836;DHT22;5977;51.972;7.640;2022-09-16T02:14:50;19.70;76.80
11836;DHT22;5977;51.972;7.640;2022-09-16T02:17:21;19.60;77.60
11836;DHT22;5977;51.972;7.640;2022-09-16T02:19:55;19.60;77.80
11836;DHT22;5977;51.972;7.640;2022-09-16T02:22:27;19.50;77.90
11836;DHT22;5977;51.972;7.640;2022-09-16T02:24:58;19.50;77.80
11836;DHT22;5977;51.972;7.640;2022-09-16T02:27:29;19.70;77.90
11836;DHT22;5977;51.972;7.640;2022-09-16T02:30:00;19.50;77.90
11836;DHT22;5977;51.972;7.640;2022-09-16T02:32:31;19.60;78.10
11836;DHT22;5977;51.972;7.640;2022-09-16T02:35:02;19.60;78.30
11836;DHT22;5977;51.972;7.640;2022-09-16T02:37:35;19.70;78.40
11836;DHT22;5977;51.972;7.640;2022-09-16T02:40:10;19.60;78.20
11836;DHT22;5977;51.972;7.640;2022-09-16T02:42:40;19.60;78.30
11836;DHT22;5977;51.972;7.640;2022-09-16T02:45:08;19.60;78.20
11836;DHT22;5977;51.972;7.640;2022-09-16T02:47:44;19.50;77.80
11836;DHT22;5977;51.972;7.640;2022-09-16T02:50:18;19.60;78.50
11836;DHT22;5977;51.972;7.640;2022-09-16T02:52:56;19.50;78.70
11836;DHT22;5977;51.972;7.640;2022-09-16T02:55:33;19.50;78.60
11836;DHT22;5977;51.972;7.640;2022-09-16T02:58:03;19.50;78.70
11836;DHT22;5977;51.972;7.640;2022-09-16T03:00:33;19.40;79.00
11836;DHT22;5977;51.972;7.640;2022-09-16T03:03:03;19.50;78.20
11836;DHT22;5977;51.972;7.640;2022-09-16T03:05:33;19.50;78.50
11836;DHT22;5977;51.972;7.640;2022-09-16T03:08:01;19.50;78.70
11836;DHT22;5977;51.972;7.640;2022-09-16T03:10:35;19.40;78.50
11836;DHT22;5977;51.972;7.640;2022-09-16T03:13:11;19.60;78.80
11836;DHT22;5977;51.972;7.640;2022-09-16T03:15:51;19.50;78.80
11836;DHT22;5977;51.972;7.640;2022-09-16T03:18:50;19.50;78.80
11836;DHT22;5977;51.972;7.640;2022-09-16T03:21:27;19.40;78.70
11836;DHT22;5977;51.972;7.640;2022-09-16T03:24:07;19.50;79.70
11836;DHT22;5977;51.972;7.640;2022-09-16T03:26:44;19.60;78.90
11836;DHT22;5977;51.972;7.640;2022-09-16T03:29:18;19.40;79.20
11836;DHT22;5977;51.972;7.640;2022-09-16T03:31:53;19.50;79.10
11836;DHT22;5977;51.972;7.640;2022-09-16T03:34:28;19.60;79.40
11836;DHT22;5977;51.972;7.640;2022-09-16T03:37:00;19.50;78.60
11836;DHT22;5977;51.972;7.640;2022-09-16T03:39:30;19.60;79.40
11836;DHT22;5977;51.972;7.640;2022-09-16T03:42:00;19.50;79.00
11836;DHT22;5977;51.972;7.640;2022-09-16T03:44:32;19.60;79.60
11836;DHT22;5977;51.972;7.640;2022-09-16T03:47:00;19.60;79.10
11836;DHT22;5977;51.972;7.640;2022-09-16T03:49:28;19.60;79.40
11836;DHT22;5977;51.972;7.640;2022-09-16T03:51:58;19.70;79.20
11836;DHT22;5977;51.972;7.640;2022-09-16T03:54:26;19.70;78.60
11836;DHT22;5977;51.972;7.640;2022-09-16T03:56:54;19.60;79.00
11836;DHT22;5977;51.972;7.640;2022-09-16T03:59:22;19.70;79.70
11836;DHT22;5977;51.972;7.640;2022-09-16T04:01:50;19.80;79.40
11836;DHT22;5977;51.972;7.640;2022-09-16T04:04:18;19.70;79.10
11836;DHT22;5977;51.972;7.640;2022-09-16T04:06:45;19.80;79.40
11836;DHT22;5977;51.972;7.640;2022-09-16T04:09:15;19.60;80.20
11836;DHT22;5977;51.972;7.640;2022-09-16T04:11:42;19.70;80.10
11836;DHT22;5977;51.972;7.640;2022-09-16T04:14:10;19.60;79.70
11836;DHT22;5977;51.972;7.640;2022-09-16T04:16:38;19.70;80.00
11836;DHT22;5977;51.972;7.640;2022-09-16T04:19:12;19.80;80.10
11836;DHT22;5977;51.972;7.640;2022-09-16T04:21:41;19.70;79.60
11836;DHT22;5977;51.972;7.640;2022-09-16T04:24:09;19.70;79.90
11836;DHT22;5977;51.972;7.640;2022-09-16T04:26:40;19.70;80.00
11836;DHT22;5977;51.972;7.640;2022-09-16T04:29:08;19.60;79.40
11836;DHT22;5977;51.972;7.640;2022-09-16T04:31:36;19.70;80.10
11836;DHT22;5977;51.972;7.640;2022-09-16T04:34:05;19.60;80.50
11836;DHT22;5977;51.972;7.640;2022-09-16T04:36:32;19.70;80.00
11836;DHT22;5977;51.972;7.640;2022-09-16T04:39:00;19.70;80.20
11836;DHT22;5977;51.972;7.640;2022-09-16T04:41:28;19.60;80.00
11836;DHT22;5977;51.972;7.640;2022-09-16T04:43:58;19.70;80.20
11836;DHT22;5977;51.972;7.640;2022-09-16T04:46:28;19.70;80.00
11836;DHT22;5977;51.972;7.640;2022-09-16T04:48:58;19.70;80.90
11836;DHT22;5977;51.972;7.640;2022-09-16T04:51:26;19.70;79.80
11836;DHT22;5977;51.972;7.640;2022-09-16T04:53:56;19.70;79.30
11836;DHT22;5977;51.972;7.640;2022-09-16T04:56:26;19.70;80.10
11836;DHT22;5977;51.972;7.640;2022-09-16T04:58:57;19.80;79.10
11836;DHT22;5977;51.972;7.640;2022-09-16T05:01:27;19.70;79.00
11836;DHT22;5977;51.972;7.640;2022-09-16T05:03:57;19.70;79.40
11836;DHT22;5977;51.972;7.640;2022-09-16T05:06:27;19.60;79.50
11836;DHT22;5977;51.972;7.640;2022-09-16T05:08:56;19.80;79.30
11836;DHT22;5977;51.972;7.640;2022-09-16T05:11:26;19.60;78.30
11836;DHT22;5977;51.972;7.640;2022-09-16T05:13:58;19.70;80.00
11836;DHT22;5977;51.972;7.640;2022-09-16T05:16:26;19.60;79.90
11836;DHT22;5977;51.972;7.640;2022-09-16T05:18:56;19.60;79.20
11836;DHT22;5977;51.972;7.640;2022-09-16T05:21:26;19.60;79.30
11836;DHT22;5977;51.972;7.640;2022-09-16T05:23:54;19.80;79.40
11836;DHT22;5977;51.972;7.640;2022-09-16T05:26:28;19.80;79.00
11836;DHT22;5977;51.972;7.640;2022-09-16T05:29:00;19.70;78.20
11836;DHT22;5977;51.972;7.640;2022-09-16T05:31:31;19.60;79.30
11836;DHT22;5977;51.972;7.640;2022-09-16T05:34:00;19.70;79.20
11836;DHT22;5977;51.972;7.640;2022-09-16T05:36:30;20.00;79.50
11836;DHT22;5977;51.972;7.640;2022-09-16T05:38:59;20.10;77.80
11836;DHT22;5977;51.972;7.640;2022-09-16T05:41:47;19.80;76.30
11836;DHT22;5977;51.972;7.640;2022-09-16T05:44:16;19.70;77.90
11836;DHT22;5977;51.972;7.640;2022-09-16T05:46:44;19.70;77.40
11836;DHT22;5977;51.972;7.640;2022-09-16T05:49:12;19.60;76.70
11836;DHT22;5977;51.972;7.640;2022-09-16T05:51:40;19.50;77.40
11836;DHT22;5977;51.972;7.640;2022-09-16T05:54:08;19.50;76.50
11836;DHT22;5977;51.972;7.640;2022-09-16T05:56:36;19.70;77.90
11836;DHT22;5977;51.972;7.640;2022-09-16T05:59:04;19.60;77.70
11836;DHT22;5977;51.972;7.640;2022-09-16T06:01:34;19.70;76.90
11836;DHT22;5977;51.972;7.640;2022-09-16T06:04:05;19.60;77.70
11836;DHT22;5977;51.972;7.640;2022-09-16T06:06:35;19.80;77.50
11836;DHT22;5977;51.972;7.640;2022-09-16T06:09:06;19.60;78.10
11836;DHT22;5977;51.972;7.640;2022-09-16T06:11:36;19.90;78.20
11836;DHT22;5977;51.972;7.640;2022-09-16T06:14:05;19.90;77.10
11836;DHT22;5977;51.972;7.640;2022-09-16T06:16:35;19.90;77.00
11836;DHT22;5977;51.972;7.640;2022-09-16T06:19:05;19.80;76.70
11836;DHT22;5977;51.972;7.640;2022-09-16T06:21:36;20.00;77.60
11836;DHT22;5977;51.972;7.640;2022-09-16T06:24:04;19.90;77.60
11836;DHT22;5977;51.972;7.640;2022-09-16T06:26:35;20.00;76.90
11836;DHT22;5977;51.972;7.640;2022-09-16T06:29:03;20.10;77.50
11836;DHT22;5977;51.972;7.640;2022-09-16T06:31:34;20.50;74.80
11836;DHT22;5977;51.972;7.640;2022-09-16T06:34:02;20.30;75.20
11836;DHT22;5977;51.972;7.640;2022-09-16T06:36:32;20.50;74.90
11836;DHT22;5977;51.972;7.640;2022-09-16T06:39:00;20.50;75.10
11836;DHT22;5977;51.972;7.640;2022-09-16T06:41:30;20.40;75.50
11836;DHT22;5977;51.972;7.640;2022-09-16T06:43:59;20.10;75.20
11836;DHT22;5977;51.972;7.640;2022-09-16T06:46:27;20.00;75.70
11836;DHT22;5977;51.972;7.640;2022-09-16T06:48:57;20.30;75.90
11836;DHT22;5977;51.972;7.640;2022-09-16T06:51:31;20.50;74.10
11836;DHT22;5977;51.972;7.640;2022-09-16T06:54:00;20.40;74.70
11836;DHT22;5977;51.972;7.640;2022-09-16T06:56:28;20.40;74.50
11836;DHT22;5977;51.972;7.640;2022-09-16T06:58:56;20.40;74.50
11836;DHT22;5977;51.972;7.640;2022-09-16T07:01:26;20.20;75.50
11836;DHT22;5977;51.972;7.640;2022-09-16T07:03:55;20.10;75.80
11836;DHT22;5977;51.972;7.640;2022-09-16T07:06:27;20.00;75.10
11836;DHT22;5977;51.972;7.640;2022-09-16T07:09:16;20.10;75.40
11836;DHT22;5977;51.972;7.640;2022-09-16T07:11:44;20.20;75.20
11836;DHT22;5977;51.972;7.640;2022-09-16T07:14:11;20.20;75.40
11836;DHT22;5977;51.972;7.640;2022-09-16T07:16:39;20.30;74.10
11836;DHT22;5977;51.972;7.640;2022-09-16T07:19:07;20.10;74.60
11836;DHT22;5977;51.972;7.640;2022-09-16T07:21:37;20.10;74.00
11836;DHT22;5977;51.972;7.640;2022-09-16T07:24:08;20.20;74.20
11836;DHT22;5977;51.972;7.640;2022-09-16T07:26:36;20.30;73.70
11836;DHT22;5977;51.972;7.640;2022-09-16T07:29:05;20.40;73.80
11836;DHT22;5977;51.972;7.640;2022-09-16T07:31:35;20.50;72.70
11836;DHT22;5977;51.972;7.640;2022-09-16T07:34:04;20.60;73.90
11836;DHT22;5977;51.972;7.640;2022-09-16T07:36:34;21.30;71.60
11836;DHT22;5977;51.972;7.640;2022-09-16T07:39:05;21.90;69.60
11836;DHT22;5977;51.972;7.640;2022-09-16T07:41:35;22.60;68.70
11836;DHT22;5977;51.972;7.640;2022-09-16T07:44:04;22.90;66.20
11836;DHT22;5977;51.972;7.640;2022-09-16T07:46:34;22.90;65.90
11836;DHT22;5977;51.972;7.640;2022-09-16T07:49:04;23.10;64.50
11836;DHT22;5977;51.972;7.640;2022-09-16T07:51:33;23.60;65.50
11836;DHT22;5977;51.972;7.640;2022-09-16T07:54:03;23.80;64.60
11836;DHT22;5977;51.972;7.640;2022-09-16T07:56:34;23.80;62.70
11836;DHT22;5977;51.972;7.640;2022-09-16T07:59:03;24.00;63.50
11836;DHT22;5977;51.972;7.640;2022-09-16T08:01:32;24.30;63.10
11836;DHT22;5977;51.972;7.640;2022-09-16T08:04:05;24.10;61.60
11836;DHT22;5977;51.972;7.640;2022-09-16T08:06:37;24.40;62.90
11836;DHT22;5977;51.972;7.640;2022-09-16T08:09:06;24.70;62.80
11836;DHT22;5977;51.972;7.640;2022-09-16T08:11:54;24.80;61.40
11836;DHT22;5977;51.972;7.640;2022-09-16T08:14:22;24.80;62.00
11836;DHT22;5977;51.972;7.640;2022-09-16T08:16:50;24.80;60.70
11836;DHT22;5977;51.972;7.640;2022-09-16T08:19:19;24.90;61.80
11836;DHT22;5977;51.972;7.640;2022-09-16T08:21:48;24.90;61.10
11836;DHT22;5977;51.972;7.640;2022-09-16T08:24:17;24.80;58.80
11836;DHT22;5977;51.972;7.640;2022-09-16T08:26:45;25.00;60.90
11836;DHT22;5977;51.972;7.640;2022-09-16T08:29:13;25.10;61.10
11836;DHT22;5977;51.972;7.640;2022-09-16T08:31:41;25.20;60.90
11836;DHT22;5977;51.972;7.640;2022-09-16T08:34:09;25.20;60.30
11836;DHT22;5977;51.972;7.640;2022-09-16T08:36:37;25.30;60.10
11836;DHT22;5977;51.972;7.640;2022-09-16T08:39:05;25.30;59.40
11836;DHT22;5977;51.972;7.640;2022-09-16T08:41:46;25.20;60.60
11836;DHT22;5977;51.972;7.640;2022-09-16T08:44:25;25.00;59.50
11836;DHT22;5977;51.972;7.640;2022-09-16T08:46:58;24.70;57.80
11836;DHT22;5977;51.972;7.640;2022-09-16T08:49:31;24.80;57.80
11836;DHT22;5977;51.972;7.640;2022-09-16T08:52:04;24.80;58.20
11836;DHT22;5977;51.972;7.640;2022-09-16T08:54:39;25.00;59.00
11836;DHT22;5977;51.972;7.640;2022-09-16T08:57:13;24.80;57.70
11836;DHT22;5977;51.972;7.640;2022-09-16T08:59:45;25.00;58.70
11836;DHT22;5977;51.972;7.640;2022-09-16T09:02:37;25.20;59.00
11836;DHT22;5977;51.972;7.640;2022-09-16T09:05:16;25.20;58.00
11836;DHT22;5977;51.972;7.640;2022-09-16T09:07:56;25.30;59.00
11836;DHT22;5977;51.972;7.640;2022-09-16T09:10:30;25.40;59.00
11836;DHT22;5977;51.972;7.640;2022-09-16T09:13:11;25.50;58.60
11836;DHT22;5977;51.972;7.640;2022-09-16T09:15:46;25.50;58.50
11836;DHT22;5977;51.972;7.640;2022-09-16T09:18:25;25.40;58.00
11836;DHT22;5977;51.972;7.640;2022-09-16T09:21:01;25.50;59.00
11836;DHT22;5977;51.972;7.640;2022-09-16T09:23:43;25.50;58.80
11836;DHT22;5977;51.972;7.640;2022-09-16T09:26:18;25.50;58.40
11836;DHT22;5977;51.972;7.640;2022-09-16T09:29:04;25.40;58.80
11836;DHT22;5977;51.972;7.640;2022-09-16T09:31:44;25.00;56.70
11836;DHT22;5977;51.972;7.640;2022-09-16T09:34:23;24.70;56.10
11836;DHT22;5977;51.972;7.640;2022-09-16T09:37:03;24.60;57.50
11836;DHT22;5977;51.972;7.640;2022-09-16T09:39:58;24.90;57.70
11836;DHT22;5977;51.972;7.640;2022-09-16T09:42:29;24.80;56.20
11836;DHT22;5977;51.972;7.640;2022-09-16T09:45:02;24.30;55.50
11836;DHT22;5977;51.972;7.640;2022-09-16T09:47:34;24.60;56.60
11836;DHT22;5977;51.972;7.640;2022-09-16T09:50:13;24.70;56.20
11836;DHT22;5977;51.972;7.640;2022-09-16T09:52:46;24.90;56.50
11836;DHT22;5977;51.972;7.640;2022-09-16T09:55:16;25.00;56.80
11836;DHT22;5977;51.972;7.640;2022-09-16T09:57:56;25.00;56.50
11836;DHT22;5977;51.972;7.640;2022-09-16T10:00:27;24.90;56.20
11836;DHT22;5977;51.972;7.640;2022-09-16T10:03:03;24.80;56.60
11836;DHT22;5977;51.972;7.640;2022-09-16T10:05:32;24.80;56.90
11836;DHT22;5977;51.972;7.640;2022-09-16T10:08:04;24.80;57.50
11836;DHT22;5977;51.972;7.640;2022-09-16T10:10:46;24.60;56.40
11836;DHT22;5977;51.972;7.640;2022-09-16T10:13:14;24.60;58.10
11836;DHT22;5977;51.972;7.640;2022-09-16T10:15:44;24.80;58.20
11836;DHT22;5977;51.972;7.640;2022-09-16T10:18:23;24.90;57.80
11836;DHT22;5977;51.972;7.640;2022-09-16T10:20:58;25.00;57.50
11836;DHT22;5977;51.972;7.640;2022-09-16T10:23:27;24.80;58.10
11836;DHT22;5977;51.972;7.640;2022-09-16T10:28:54;24.80;56.80
11836;DHT22;5977;51.972;7.640;2022-09-16T10:31:24;24.80;57.40
11836;DHT22;5977;51.972;7.640;2022-09-16T10:33:58;24.90;58.40
11836;DHT22;5977;51.972;7.640;2022-09-16T10:36:31;24.90;57.30
11836;DHT22;5977;51.972;7.640;2022-09-16T10:39:01;24.90;58.10
11836;DHT22;5977;51.972;7.640;2022-09-16T10:41:32;24.90;58.60
11836;DHT22;5977;51.972;7.640;2022-09-16T10:44:12;24.90;57.90
11836;DHT22;5977;51.972;7.640;2022-09-16T10:46:51;24.90;57.90
11836;DHT22;5977;51.972;7.640;2022-09-16T10:49:23;24.80;56.70
11836;DHT22;5977;51.972;7.640;2022-09-16T10:51:52;24.50;56.80
11836;DHT22;5977;51.972;7.640;2022-09-16T10:54:25;24.60;56.90
11836;DHT22;5977;51.972;7.640;2022-09-16T10:56:53;24.60;55.50
11836;DHT22;5977;51.972;7.640;2022-09-16T10:59:22;24.50;55.80
11836;DHT22;5977;51.972;7.640;2022-09-16T11:01:59;24.60;57.50
11836;DHT22;5977;51.972;7.640;2022-09-16T11:04:43;24.60;57.30
11836;DHT22;5977;51.972;7.640;2022-09-16T11:07:25;24.60;57.70
11836;DHT22;5977;51.972;7.640;2022-09-16T11:10:03;24.60;57.40
11836;DHT22;5977;51.972;7.640;2022-09-16T11:15:45;24.00;56.50
11836;DHT22;5977;51.972;7.640;2022-09-16T11:18:24;24.10;56.00
11836;DHT22;5977;51.972;7.640;2022-09-16T11:21:17;24.20;55.90
11836;DHT22;5977;51.972;7.640;2022-09-16T11:24:03;24.20;55.70
11836;DHT22;5977;51.972;7.640;2022-09-16T11:26:43;24.30;56.00
11836;DHT22;5977;51.972;7.640;2022-09-16T11:29:23;24.30;56.10
11836;DHT22;5977;51.972;7.640;2022-09-16T11:32:03;24.30;55.70
11836;DHT22;5977;51.972;7.640;2022-09-16T11:34:49;24.30;56.30
11836;DHT22;5977;51.972;7.640;2022-09-16T11:37:23;24.20;56.30
11836;DHT22;5977;51.972;7.640;2022-09-16T11:40:11;24.30;56.90
11836;DHT22;5977;51.972;7.640;2022-09-16T11:42:44;24.30;56.90
11836;DHT22;5977;51.972;7.640;2022-09-16T11:45:23;24.30;56.70
11836;DHT22;5977;51.972;7.640;2022-09-16T11:48:01;24.30;57.00
11836;DHT22;5977;51.972;7.640;2022-09-16T11:50:43;24.30;57.20
11836;DHT22;5977;51.972;7.640;2022-09-16T11:53:39;24.30;56.50
11836;DHT22;5977;51.972;7.640;2022-09-16T11:56:16;24.20;57.50
11836;DHT22;5977;51.972;7.640;2022-09-16T11:58:47;24.30;57.60
11836;DHT22;5977;51.972;7.640;2022-09-16T12:01:27;24.30;58.00
11836;DHT22;5977;51.972;7.640;2022-09-16T12:04:01;24.30;57.80
11836;DHT22;5977;51.972;7.640;2022-09-16T12:06:37;24.30;57.70
11836;DHT22;5977;51.972;7.640;2022-09-16T12:09:11;24.20;58.10
11836;DHT22;5977;51.972;7.640;2022-09-16T12:11:43;24.20;57.70
11836;DHT22;5977;51.972;7.640;2022-09-16T12:14:15;24.30;58.20
11836;DHT22;5977;51.972;7.640;2022-09-16T12:16:48;24.20;57.00
11836;DHT22;5977;51.972;7.640;2022-09-16T12:19:21;24.20;57.50
11836;DHT22;5977;51.972;7.640;2022-09-16T12:21:55;24.30;57.20
11836;DHT22;5977;51.972;7.640;2022-09-16T12:24:31;24.00;56.50
11836;DHT22;5977;51.972;7.640;2022-09-16T12:27:05;24.00;56.70
11836;DHT22;5977;51.972;7.640;2022-09-16T12:29:41;24.10;57.30
11836;DHT22;5977;51.972;7.640;2022-09-16T12:32:14;24.00;57.00
11836;DHT22;5977;51.972;7.640;2022-09-16T12:34:49;23.80;55.70
11836;DHT22;5977;51.972;7.640;2022-09-16T12:37:32;23.90;56.90
11836;DHT22;5977;51.972;7.640;2022-09-16T12:40:03;24.00;57.20
11836;DHT22;5977;51.972;7.640;2022-09-16T12:43:03;23.90;55.90
11836;DHT22;5977;51.972;7.640;2022-09-16T12:51:35;24.00;55.10
11836;DHT22;5977;51.972;7.640;2022-09-16T12:54:39;23.90;57.20
11836;DHT22;5977;51.972;7.640;2022-09-16T12:57:40;24.10;57.00
11836;DHT22;5977;51.972;7.640;2022-09-16T13:00:18;24.00;55.00
11836;DHT22;5977;51.972;7.640;2022-09-16T13:02:48;24.10;57.00
11836;DHT22;5977;51.972;7.640;2022-09-16T13:05:23;24.10;55.90
11836;DHT22;5977;51.972;7.640;2022-09-16T13:07:59;24.20;56.40
11836;DHT22;5977;51.972;7.640;2022-09-16T13:10:31;24.10;56.20
11836;DHT22;5977;51.972;7.640;2022-09-16T13:13:28;23.90;54.90
11836;DHT22;5977;51.972;7.640;2022-09-16T13:15:58;23.70;53.80
11836;DHT22;5977;51.972;7.640;2022-09-16T13:18:39;23.60;53.50
11836;DHT22;5977;51.972;7.640;2022-09-16T13:21:21;23.60;55.00
11836;DHT22;5977;51.972;7.640;2022-09-16T13:24:00;23.30;52.70
11836;DHT22;5977;51.972;7.640;2022-09-16T13:26:39;23.10;52.20
11836;DHT22;5977;51.972;7.640;2022-09-16T13:29:24;22.90;53.20
11836;DHT22;5977;51.972;7.640;2022-09-16T13:31:53;22.80;52.70
11836;DHT22;5977;51.972;7.640;2022-09-16T13:34:21;22.70;52.70
11836;DHT22;5977;51.972;7.640;2022-09-16T13:36:50;22.60;52.70
11836;DHT22;5977;51.972;7.640;2022-09-16T13:39:28;22.60;52.80
11836;DHT22;5977;51.972;7.640;2022-09-16T13:42:08;22.60;52.70
11836;DHT22;5977;51.972;7.640;2022-09-16T13:44:41;22.50;51.80
11836;DHT22;5977;51.972;7.640;2022-09-16T13:47:17;22.30;51.50
11836;DHT22;5977;51.972;7.640;2022-09-16T13:49:48;22.30;52.50
11836;DHT22;5977;51.972;7.640;2022-09-16T13:52:19;22.40;52.50
11836;DHT22;5977;51.972;7.640;2022-09-16T13:54:51;22.30;52.20
11836;DHT22;5977;51.972;7.640;2022-09-16T13:57:48;22.20;51.70
11836;DHT22;5977;51.972;7.640;2022-09-16T14:00:20;22.30;52.20
11836;DHT22;5977;51.972;7.640;2022-09-16T14:03:07;22.20;52.40
11836;DHT22;5977;51.972;7.640;2022-09-16T14:05:56;22.20;51.90
11836;DHT22;5977;51.972;7.640;2022-09-16T14:08:30;22.10;52.70
11836;DHT22;5977;51.972;7.640;2022-09-16T14:11:08;22.40;53.00
11836;DHT22;5977;51.972;7.640;2022-09-16T14:13:42;22.40;52.80
11836;DHT22;5977;51.972;7.640;2022-09-16T14:16:17;22.50;52.60
11836;DHT22;5977;51.972;7.640;2022-09-16T14:18:52;22.60;53.60
11836;DHT22;5977;51.972;7.640;2022-09-16T14:21:22;22.80;53.20
11836;DHT22;5977;51.972;7.640;2022-09-16T14:23:51;22.90;52.80
11836;DHT22;5977;51.972;7.640;2022-09-16T14:26:21;22.90;53.60
11836;DHT22;5977;51.972;7.640;2022-09-16T14:29:01;22.80;53.20
11836;DHT22;5977;51.972;7.640;2022-09-16T14:31:30;22.90;53.90
11836;DHT22;5977;51.972;7.640;2022-09-16T14:34:01;22.90;52.50
11836;DHT22;5977;51.972;7.640;2022-09-16T14:36:34;22.70;52.00
11836;DHT22;5977;51.972;7.640;2022-09-16T14:39:10;22.60;52.30
11836;DHT22;5977;51.972;7.640;2022-09-16T14:41:42;22.50;52.00
11836;DHT22;5977;51.972;7.640;2022-09-16T14:44:18;22.40;51.80
11836;DHT22;5977;51.972;7.640;2022-09-16T14:46:49;22.40;52.00
11836;DHT22;5977;51.972;7.640;2022-09-16T14:49:30;22.40;52.00
11836;DHT22;5977;51.972;7.640;2022-09-16T14:52:00;22.20;51.80
11836;DHT22;5977;51.972;7.640;2022-09-16T14:54:29;22.30;52.40
11836;DHT22;5977;51.972;7.640;2022-09-16T14:56:58;22.30;52.30
11836;DHT22;5977;51.972;7.640;2022-09-16T14:59:31;22.40;52.40
11836;DHT22;5977;51.972;7.640;2022-09-16T15:02:02;22.50;54.70
11836;DHT22;5977;51.972;7.640;2022-09-16T15:04:33;22.60;53.70
11836;DHT22;5977;51.972;7.640;2022-09-16T15:07:06;22.60;53.80
11836;DHT22;5977;51.972;7.640;2022-09-16T15:09:42;22.50;54.70
11836;DHT22;5977;51.972;7.640;2022-09-16T15:12:22;22.40;53.70
11836;DHT22;5977;51.972;7.640;2022-09-16T15:14:53;22.30;53.60
11836;DHT22;5977;51.972;7.640;2022-09-16T15:17:24;22.50;54.00
11836;DHT22;5977;51.972;7.640;2022-09-16T15:19:55;22.20;54.00
11836;DHT22;5977;51.972;7.640;2022-09-16T15:22:24;22.20;53.70
11836;DHT22;5977;51.972;7.640;2022-09-16T15:24:54;22.20;54.50
11836;DHT22;5977;51.972;7.640;2022-09-16T15:27:24;22.30;54.70
11836;DHT22;5977;51.972;7.640;2022-09-16T15:29:56;22.20;54.60
11836;DHT22;5977;51.972;7.640;2022-09-16T15:32:27;22.20;54.10
11836;DHT22;5977;51.972;7.640;2022-09-16T15:35:11;22.40;55.70
11836;DHT22;5977;51.972;7.640;2022-09-16T15:37:39;22.50;54.30
11836;DHT22;5977;51.972;7.640;2022-09-16T15:40:20;22.30;54.60
11836;DHT22;5977;51.972;7.640;2022-09-16T15:43:01;22.50;53.90
11836;DHT22;5977;51.972;7.640;2022-09-16T15:45:30;22.40;53.70
11836;DHT22;5977;51.972;7.640;2022-09-16T15:48:00;22.40;53.80
11836;DHT22;5977;51.972;7.640;2022-09-16T15:50:35;22.30;54.60
11836;DHT22;5977;51.972;7.640;2022-09-16T15:53:07;22.40;54.90
11836;DHT22;5977;51.972;7.640;2022-09-16T15:55:39;22.50;54.40
11836;DHT22;5977;51.972;7.640;2022-09-16T15:58:12;22.50;53.90
11836;DHT22;5977;51.972;7.640;2022-09-16T16:01:07;22.30;54.10
11836;DHT22;5977;51.972;7.640;2022-09-16T16:03:49;22.20;55.00
11836;DHT22;5977;51.972;7.640;2022-09-16T16:06:18;22.10;54.20
11836;DHT22;5977;51.972;7.640;2022-09-16T16:08:48;22.00;55.00
11836;DHT22;5977;51.972;7.640;2022-09-16T16:11:17;22.10;55.00
11836;DHT22;5977;51.972;7.640;2022-09-16T16:13:46;22.20;55.20
11836;DHT22;5977;51.972;7.640;2022-09-16T16:16:17;22.10;54.90
11836;DHT22;5977;51.972;7.640;2022-09-16T16:18:45;21.80;55.00
11836;DHT22;5977;51.972;7.640;2022-09-16T16:21:15;21.80;55.90
11836;DHT22;5977;51.972;7.640;2022-09-16T16:23:43;22.20;56.60
11836;DHT22;5977;51.972;7.640;2022-09-16T16:26:11;22.30;56.60
11836;DHT22;5977;51.972;7.640;2022-09-16T16:28:38;22.20;56.70
11836;DHT22;5977;51.972;7.640;2022-09-16T16:31:08;22.00;57.10
11836;DHT22;5977;51.972;7.640;2022-09-16T16:33:40;22.00;56.70
11836;DHT22;5977;51.972;7.640;2022-09-16T16:36:11;22.10;57.40
11836;DHT22;5977;51.972;7.640;2022-09-16T16:38:39;21.90;57.70
11836;DHT22;5977;51.972;7.640;2022-09-16T16:41:07;22.00;56.90
11836;DHT22;5977;51.972;7.640;2022-09-16T16:43:37;21.80;57.50
11836;DHT22;5977;51.972;7.640;2022-09-16T16:46:05;21.60;57.50